createdAt,value
2022-10-11T00:00:09.130Z,8.17
2022-10-11T00:02:35.597Z,8.10
2022-10-11T00:05:02.127Z,8.05
2022-10-11T00:07:28.622Z,7.95
2022-10-11T00:09:55.398Z,7.90
2022-10-11T00:12:21.897Z,7.84
2022-10-11T00:14:48.501Z,7.74
2022-10-11T00:17:14.976Z,7.62
2022-10-11T00:19:41.623Z,7.57
2022-10-11T00:22:08.036Z,7.47
2022-10-11T00:24:34.672Z,7.44
2022-10-11T00:27:01.197Z,7.42
2022-10-11T00:29:27.787Z,7.38
2022-10-11T00:31:54.246Z,7.36
2022-10-11T00:34:20.890Z,7.40
2022-10-11T00:36:47.298Z,7.39
2022-10-11T00:39:14.596Z,7.41
2022-10-11T00:41:41.667Z,7.38
2022-10-11T00:44:21.182Z,7.36
2022-10-11T00:47:01.302Z,7.31
2022-10-11T00:49:36.471Z,7.28
2022-10-11T00:52:06.832Z,7.25
2022-10-11T00:54:39.210Z,7.14
2022-10-11T00:57:09.893Z,7.10
2022-10-11T00:59:46.620Z,7.06
2022-10-11T01:02:14.664Z,7.01
2022-10-11T01:04:41.759Z,6.86
2022-10-11T01:07:09.565Z,6.77
2022-10-11T01:09:36.326Z,6.67
2022-10-11T01:12:06.746Z,6.63
2022-10-11T01:14:45.381Z,6.56
2022-10-11T01:17:20.476Z,6.51
2022-10-11T01:20:22.496Z,6.45
2022-10-11T01:23:15.393Z,6.33
2022-10-11T01:25:51.031Z,6.30
2022-10-11T01:28:34.954Z,6.26
2022-10-11T01:31:08.800Z,6.23
2022-10-11T01:33:55.984Z,6.19
2022-10-11T01:36:36.353Z,6.19
2022-10-11T01:39:10.371Z,6.22
2022-10-11T01:41:44.001Z,6.15
2022-10-11T01:44:13.623Z,6.11
2022-10-11T01:46:41.337Z,6.06
2022-10-11T01:49:08.297Z,6.03
2022-10-11T01:51:42.958Z,5.98
2022-10-11T01:54:56.514Z,5.94
2022-10-11T01:57:36.184Z,5.97
2022-10-11T02:00:29.243Z,5.95
2022-10-11T02:03:27.129Z,5.90
2022-10-11T02:06:09.852Z,5.87
2022-10-11T02:08:39.058Z,5.78
2022-10-11T02:11:29.591Z,5.69
2022-10-11T02:14:11.590Z,5.64
2022-10-11T02:16:49.269Z,5.56
2022-10-11T02:19:19.666Z,5.57
2022-10-11T02:21:52.719Z,5.50
2022-10-11T02:24:27.293Z,5.47
2022-10-11T02:26:56.803Z,5.48
2022-10-11T02:29:26.754Z,5.41
2022-10-11T02:31:56.608Z,5.43
2022-10-11T02:34:31.264Z,5.47
2022-10-11T02:37:08.815Z,5.43
2022-10-11T02:39:47.843Z,5.40
2022-10-11T02:42:19.055Z,5.40
2022-10-11T02:44:53.637Z,5.41
2022-10-11T02:47:20.071Z,5.37
2022-10-11T02:49:46.630Z,5.34
2022-10-11T02:52:14.385Z,5.29
2022-10-11T02:54:40.863Z,5.23
2022-10-11T02:57:19.259Z,5.18
2022-10-11T02:59:45.712Z,5.16
2022-10-11T03:02:12.529Z,5.15
2022-10-11T03:04:39.005Z,5.13
2022-10-11T03:07:05.615Z,5.18
2022-10-11T03:09:35.436Z,5.24
2022-10-11T03:12:13.995Z,5.23
2022-10-11T03:18:40.972Z,5.39
2022-10-11T03:21:07.642Z,5.51
2022-10-11T03:23:34.511Z,5.56
2022-10-11T03:26:01.320Z,5.63
2022-10-11T03:28:34.677Z,5.68
2022-10-11T03:31:03.866Z,5.72
2022-10-11T03:33:42.029Z,5.76
2022-10-11T03:36:25.495Z,5.77
2022-10-11T03:38:57.150Z,5.82
2022-10-11T03:41:28.206Z,5.83
2022-10-11T03:55:31.373Z,6.22
2022-10-11T03:58:25.825Z,6.27
2022-10-11T05:02:56.053Z,7.16
2022-10-11T05:05:22.588Z,7.20
2022-10-11T05:07:52.158Z,7.25
2022-10-11T05:10:45.077Z,7.31
2022-10-11T05:16:31.404Z,7.42
2022-10-11T05:18:57.845Z,7.49
2022-10-11T05:21:26.771Z,7.45
2022-10-11T05:23:55.805Z,7.48
2022-10-11T05:26:23.278Z,7.54
2022-10-11T05:28:50.071Z,7.48
2022-10-11T05:31:17.466Z,7.45
2022-10-11T05:33:43.965Z,7.46
2022-10-11T05:36:11.541Z,7.51
2022-10-11T05:38:38.936Z,7.56
2022-10-11T05:41:06.403Z,7.59
2022-10-11T05:43:32.873Z,7.59
2022-10-11T05:45:59.335Z,7.63
2022-10-11T05:48:26.701Z,7.67
2022-10-11T05:50:53.539Z,7.70
2022-10-11T05:53:19.960Z,7.74
2022-10-11T05:55:48.857Z,7.77
2022-10-11T05:58:17.214Z,7.80
2022-10-11T06:00:43.603Z,7.88
2022-10-11T06:03:12.555Z,7.91
2022-10-11T06:05:41.034Z,7.89
2022-10-11T06:08:09.813Z,7.90
2022-10-11T06:10:38.118Z,7.90
2022-10-11T06:13:05.335Z,7.95
2022-10-11T06:15:32.227Z,7.93
2022-10-11T06:17:59.255Z,7.92
2022-10-11T06:20:26.896Z,7.90
2022-10-11T06:22:53.435Z,7.95
2022-10-11T06:25:20.077Z,7.95
2022-10-11T06:27:46.517Z,7.94
2022-10-11T06:30:14.120Z,7.89
2022-10-11T06:32:40.508Z,7.91
2022-10-11T06:35:07.548Z,7.96
2022-10-11T06:37:34.030Z,7.96
2022-10-11T06:40:03.353Z,7.97
2022-10-11T06:42:29.764Z,8.07
2022-10-11T06:44:56.346Z,8.15
2022-10-11T06:47:22.765Z,8.17
2022-10-11T06:49:49.369Z,8.17
2022-10-11T06:52:15.841Z,8.22
2022-10-11T06:54:44.870Z,8.30
2022-10-11T06:57:11.824Z,8.33
2022-10-11T06:59:38.446Z,8.34
2022-10-11T07:02:05.010Z,8.34
2022-10-11T07:04:33.646Z,8.42
2022-10-11T07:07:00.163Z,8.53
2022-10-11T07:09:26.580Z,8.53
2022-10-11T07:11:53.166Z,8.55
2022-10-11T07:14:19.651Z,8.58
2022-10-11T07:16:46.164Z,8.61
2022-10-11T07:19:12.578Z,8.67
2022-10-11T07:21:38.975Z,8.49
2022-10-11T07:24:05.822Z,8.46
2022-10-11T07:26:38.350Z,8.54
2022-10-11T07:29:06.372Z,8.44
2022-10-11T07:31:32.882Z,8.36
2022-10-11T07:33:59.328Z,8.38
2022-10-11T07:36:25.901Z,8.49
2022-10-11T07:38:52.475Z,8.54
2022-10-11T07:41:19.693Z,8.63
2022-10-11T07:43:49.391Z,8.73
2022-10-11T07:46:17.028Z,8.76
2022-10-11T07:48:43.468Z,8.79
2022-10-11T07:51:12.923Z,8.91
2022-10-11T07:53:47.541Z,8.75
2022-10-11T07:56:17.281Z,8.61
2022-10-11T07:58:44.191Z,8.74
2022-10-11T08:01:11.570Z,8.78
2022-10-11T08:03:38.511Z,8.89
2022-10-11T08:06:08.059Z,8.91
2022-10-11T08:08:35.633Z,8.87
2022-10-11T08:11:02.219Z,8.99
2022-10-11T08:13:28.582Z,8.91
2022-10-11T08:15:54.951Z,8.88
2022-10-11T08:18:21.553Z,8.77
2022-10-11T08:20:47.972Z,8.75
2022-10-11T08:23:16.101Z,8.87
2022-10-11T08:25:44.827Z,8.89
2022-10-11T08:28:17.428Z,8.92
2022-10-11T08:30:49.311Z,8.89
2022-10-11T08:33:17.125Z,8.95
2022-10-11T08:35:43.577Z,8.91
2022-10-11T08:38:10.056Z,8.93
2022-10-11T08:40:36.567Z,9.08
2022-10-11T08:43:24.027Z,9.28
2022-10-11T08:45:54.394Z,9.48
2022-10-11T08:48:26.016Z,9.58
2022-10-11T08:50:54.326Z,9.77
2022-10-11T08:53:32.683Z,9.88
2022-10-11T08:55:59.213Z,10.04
2022-10-11T08:58:39.637Z,10.12
2022-10-11T09:01:13.074Z,10.25
2022-10-11T09:03:42.772Z,10.31
2022-10-11T09:06:21.593Z,10.38
2022-10-11T09:08:57.439Z,10.45
2022-10-11T09:11:32.755Z,10.30
2022-10-11T09:14:14.281Z,10.67
2022-10-11T09:17:01.482Z,10.84
2022-10-11T09:19:30.882Z,10.61
2022-10-11T09:22:13.804Z,10.44
2022-10-11T09:24:49.055Z,10.54
2022-10-11T09:27:25.919Z,10.51
2022-10-11T09:30:15.781Z,10.49
2022-10-11T09:32:46.227Z,10.43
2022-10-11T09:35:15.523Z,10.16
2022-10-11T09:37:54.002Z,10.23
2022-10-11T09:40:43.339Z,10.46
2022-10-11T09:43:10.018Z,10.61
2022-10-11T09:45:36.554Z,10.68
2022-10-11T09:48:06.634Z,10.95
2022-10-11T09:50:33.381Z,11.04
2022-10-11T09:53:07.603Z,11.07
2022-10-11T09:55:43.285Z,10.86
2022-10-11T09:58:30.028Z,10.85
2022-10-11T10:01:02.777Z,10.87
2022-10-11T10:03:39.059Z,10.93
2022-10-11T10:06:15.511Z,11.04
2022-10-11T10:08:43.067Z,11.02
2022-10-11T10:11:11.430Z,11.05
2022-10-11T10:13:51.558Z,10.78
2022-10-11T10:16:22.701Z,10.82
2022-10-11T10:18:56.627Z,11.03
2022-10-11T10:21:27.706Z,11.11
2022-10-11T10:23:55.526Z,11.21
2022-10-11T10:26:25.466Z,11.24
2022-10-11T10:29:08.986Z,11.30
2022-10-11T10:32:09.293Z,11.28
2022-10-11T10:34:37.059Z,11.19
2022-10-11T10:37:19.650Z,11.21
2022-10-11T10:40:02.237Z,11.21
2022-10-11T10:42:28.837Z,11.23
2022-10-11T10:44:59.153Z,11.32
2022-10-11T10:47:42.360Z,11.29
2022-10-11T10:50:21.349Z,11.39
2022-10-11T10:53:22.993Z,11.43
2022-10-11T10:56:01.436Z,11.31
2022-10-11T10:58:50.855Z,11.29
2022-10-11T11:01:30.498Z,11.60
2022-10-11T11:04:07.597Z,11.98
2022-10-11T11:07:12.845Z,12.25
2022-10-11T11:09:55.583Z,12.25
2022-10-11T11:12:47.683Z,12.28
2022-10-11T11:15:31.265Z,12.27
2022-10-11T11:18:36.366Z,12.28
2022-10-11T11:21:16.148Z,12.28
2022-10-11T11:24:05.572Z,12.37
2022-10-11T11:26:44.235Z,12.30
2022-10-11T11:29:27.130Z,12.18
2022-10-11T11:32:28.678Z,12.47
2022-10-11T11:35:01.186Z,12.62
2022-10-11T11:37:34.267Z,12.77
2022-10-11T11:40:39.275Z,12.93
2022-10-11T11:43:21.719Z,13.06
2022-10-11T11:45:53.608Z,12.78
2022-10-11T11:48:24.661Z,12.48
2022-10-11T11:51:02.378Z,12.15
2022-10-11T11:53:41.314Z,11.92
2022-10-11T11:56:31.653Z,11.96
2022-10-11T11:59:06.713Z,12.09
2022-10-11T12:01:38.071Z,12.28
2022-10-11T12:04:12.490Z,12.51
2022-10-11T12:06:52.441Z,12.57
2022-10-11T12:09:26.768Z,12.60
2022-10-11T12:12:03.740Z,12.74
2022-10-11T12:14:32.946Z,12.87
2022-10-11T12:17:13.526Z,12.92
2022-10-11T12:19:43.751Z,13.04
2022-10-11T12:22:28.242Z,13.10
2022-10-11T12:25:14.973Z,13.19
2022-10-11T12:27:47.188Z,13.10
2022-10-11T12:30:44.368Z,13.21
2022-10-11T12:33:24.658Z,13.27
2022-10-11T12:35:53.731Z,13.31
2022-10-11T12:38:35.418Z,13.27
2022-10-11T12:41:38.713Z,13.19
2022-10-11T12:44:26.231Z,13.21
2022-10-11T12:46:55.975Z,13.04
2022-10-11T12:49:32.124Z,13.08
2022-10-11T12:52:28.297Z,13.12
2022-10-11T12:55:17.843Z,13.26
2022-10-11T12:58:21.774Z,13.29
2022-10-11T13:00:51.562Z,13.44
2022-10-11T13:03:34.587Z,13.28
2022-10-11T13:06:11.478Z,13.24
2022-10-11T13:08:43.117Z,13.18
2022-10-11T13:11:19.296Z,13.11
2022-10-11T13:14:23.012Z,13.39
2022-10-11T13:17:04.561Z,13.50
2022-10-11T13:19:33.636Z,13.66
2022-10-11T13:22:03.352Z,13.76
2022-10-11T13:24:39.894Z,13.84
2022-10-11T13:27:07.466Z,13.98
2022-10-11T13:29:37.980Z,14.00
2022-10-11T13:32:18.177Z,13.94
2022-10-11T13:34:47.672Z,13.75
2022-10-11T13:37:23.734Z,13.73
2022-10-11T13:39:55.322Z,13.80
2022-10-11T13:42:28.543Z,13.95
2022-10-11T13:44:55.424Z,14.06
2022-10-11T13:47:28.080Z,14.12
2022-10-11T13:50:10.756Z,14.16
2022-10-11T13:52:52.480Z,14.31
2022-10-11T13:55:29.615Z,14.31
2022-10-11T13:58:00.049Z,14.30
2022-10-11T14:00:28.865Z,14.42
2022-10-11T14:03:12.763Z,14.18
2022-10-11T14:05:44.950Z,14.13
2022-10-11T14:08:30.175Z,14.14
2022-10-11T14:10:59.384Z,14.11
2022-10-11T14:13:42.495Z,14.10
2022-10-11T14:16:28.255Z,14.16
2022-10-11T14:19:00.311Z,14.22
2022-10-11T14:21:29.187Z,14.10
2022-10-11T14:24:05.243Z,14.18
2022-10-11T14:26:35.176Z,14.14
2022-10-11T14:29:06.686Z,14.35
2022-10-11T14:31:34.303Z,14.20
2022-10-11T14:34:03.875Z,14.30
2022-10-11T14:36:30.286Z,14.30
2022-10-11T14:38:56.699Z,14.38
2022-10-11T14:41:23.283Z,14.46
2022-10-11T14:43:49.734Z,14.35
2022-10-11T14:46:24.790Z,14.40
2022-10-11T14:48:55.437Z,14.44
2022-10-11T14:51:27.433Z,14.31
2022-10-11T14:53:54.058Z,14.29
2022-10-11T14:56:21.741Z,14.29
2022-10-11T14:58:48.445Z,14.20
2022-10-11T15:01:16.538Z,14.28
2022-10-11T15:03:43.407Z,14.26
2022-10-11T15:06:32.593Z,14.30
2022-10-11T15:08:58.976Z,14.26
2022-10-11T15:11:26.147Z,14.26
2022-10-11T15:13:52.461Z,14.28
2022-10-11T15:16:20.676Z,14.26
2022-10-11T15:18:50.821Z,14.25
2022-10-11T15:21:23.308Z,13.93
2022-10-11T15:23:51.411Z,13.81
2022-10-11T15:26:23.942Z,13.57
2022-10-11T15:28:50.817Z,13.56
2022-10-11T15:31:18.079Z,13.58
2022-10-11T15:33:44.472Z,13.63
2022-10-11T15:36:22.346Z,13.62
2022-10-11T15:38:49.355Z,13.58
2022-10-11T15:41:18.719Z,13.56
2022-10-11T15:43:46.547Z,13.52
2022-10-11T15:46:15.889Z,13.48
2022-10-11T15:48:42.212Z,13.43
2022-10-11T15:51:08.667Z,13.35
2022-10-11T15:53:36.648Z,13.28
2022-10-11T15:56:06.935Z,13.22
2022-10-11T15:58:39.193Z,13.14
2022-10-11T16:01:09.338Z,13.02
2022-10-11T16:03:36.115Z,12.86
2022-10-11T16:06:05.262Z,12.71
2022-10-11T16:08:33.812Z,12.55
2022-10-11T16:11:00.290Z,12.39
2022-10-11T16:13:26.730Z,12.25
2022-10-11T16:15:53.183Z,12.10
2022-10-11T16:18:20.984Z,11.99
2022-10-11T16:20:49.980Z,11.85
2022-10-11T16:23:16.825Z,11.70
2022-10-11T16:25:43.347Z,11.46
2022-10-11T16:28:10.279Z,11.23
2022-10-11T16:30:45.096Z,11.10
2022-10-11T16:33:11.434Z,10.93
2022-10-11T16:35:41.503Z,10.77
2022-10-11T16:38:08.306Z,10.66
2022-10-11T16:40:36.029Z,10.55
2022-10-11T16:43:07.397Z,10.34
2022-10-11T16:45:35.278Z,10.14
2022-10-11T16:48:01.856Z,10.03
2022-10-11T16:50:28.979Z,9.87
2022-10-11T16:52:55.438Z,9.73
2022-10-11T16:55:22.633Z,9.60
2022-10-11T16:57:48.996Z,9.49
2022-10-11T17:00:16.384Z,9.39
2022-10-11T17:02:42.762Z,9.30
2022-10-11T17:05:09.232Z,9.16
2022-10-11T17:07:35.691Z,9.13
2022-10-11T17:10:02.082Z,8.98
2022-10-11T17:12:28.455Z,8.83
2022-10-11T17:14:55.273Z,8.76
2022-10-11T17:17:21.886Z,8.68
2022-10-11T17:19:48.319Z,8.59
2022-10-11T17:22:18.035Z,8.47
2022-10-11T17:24:44.563Z,8.38
2022-10-11T17:27:11.103Z,8.34
2022-10-11T17:29:37.609Z,8.29
2022-10-11T17:32:04.785Z,8.22
2022-10-11T17:34:31.240Z,8.17
2022-10-11T17:36:57.579Z,8.04
2022-10-11T17:39:25.661Z,7.93
2022-10-11T17:41:52.663Z,7.80
2022-10-11T17:44:19.602Z,7.77
2022-10-11T17:46:46.305Z,7.69
2022-10-11T17:49:12.878Z,7.65
2022-10-11T17:51:40.336Z,7.59
2022-10-11T17:54:12.076Z,7.60
2022-10-11T17:56:40.037Z,7.57
2022-10-11T17:59:07.629Z,7.50
2022-10-11T18:01:34.294Z,7.44
2022-10-11T18:04:04.107Z,7.35
2022-10-11T18:06:34.178Z,7.27
2022-10-11T18:09:01.908Z,7.18
2022-10-11T18:11:28.871Z,7.09
2022-10-11T18:13:55.549Z,7.03
2022-10-11T18:16:35.387Z,6.95
2022-10-11T18:19:04.170Z,6.89
2022-10-11T18:21:34.360Z,6.90
2022-10-11T18:24:03.363Z,6.92
2022-10-11T18:26:30.879Z,6.81
2022-10-11T18:28:57.688Z,6.77
2022-10-11T18:31:27.570Z,6.71
2022-10-11T18:33:54.521Z,6.68
2022-10-11T18:36:24.584Z,6.60
2022-10-11T18:39:02.343Z,6.59
2022-10-11T18:41:31.851Z,6.55
2022-10-11T18:44:01.487Z,6.52
2022-10-11T18:46:28.729Z,6.46
2022-10-11T18:48:56.857Z,6.45
2022-10-11T18:51:26.068Z,6.45
2022-10-11T18:53:53.733Z,6.43
2022-10-11T18:56:23.802Z,6.42
2022-10-11T18:58:52.241Z,6.31
2022-10-11T19:01:24.617Z,6.26
2022-10-11T19:03:53.562Z,6.15
2022-10-11T19:06:22.403Z,6.16
2022-10-11T19:09:21.524Z,6.11
2022-10-11T19:11:55.033Z,6.10
2022-10-11T19:14:28.564Z,6.07
2022-10-11T19:16:56.008Z,6.04
2022-10-11T19:19:25.522Z,6.04
2022-10-11T19:21:52.389Z,5.97
2022-10-11T19:24:22.128Z,5.94
2022-10-11T19:26:49.330Z,5.95
2022-10-11T19:29:21.262Z,5.93
2022-10-11T19:31:50.303Z,5.89
2022-10-11T19:34:16.967Z,5.80
2022-10-11T19:36:43.851Z,5.77
2022-10-11T19:39:12.290Z,5.76
2022-10-11T19:41:38.859Z,5.72
2022-10-11T19:44:05.247Z,5.71
2022-10-11T19:46:50.261Z,5.67
2022-10-11T19:49:20.307Z,5.63
2022-10-11T19:51:46.844Z,5.61
2022-10-11T19:54:14.687Z,5.63
2022-10-11T19:56:42.666Z,5.61
2022-10-11T19:59:10.928Z,5.57
2022-10-11T20:01:37.852Z,5.51
2022-10-11T20:04:22.655Z,5.47
2022-10-11T20:06:56.795Z,5.45
2022-10-11T20:09:31.126Z,5.42
2022-10-11T20:11:57.894Z,5.38
2022-10-11T20:14:24.460Z,5.39
2022-10-11T20:16:51.279Z,5.38
2022-10-11T20:19:18.577Z,5.37
2022-10-11T20:21:45.306Z,5.34
2022-10-11T20:24:12.352Z,5.30
2022-10-11T20:26:39.162Z,5.33
2022-10-11T20:29:05.670Z,5.33
2022-10-11T20:31:33.840Z,5.33
2022-10-11T20:34:04.089Z,5.30
2022-10-11T20:36:31.602Z,5.33
2022-10-11T20:38:59.672Z,5.34
2022-10-11T20:41:28.835Z,5.29
2022-10-11T20:43:57.497Z,5.20
2022-10-11T20:46:26.898Z,5.11
2022-10-11T20:49:02.438Z,5.01
2022-10-11T20:51:30.918Z,4.99
2022-10-11T20:53:58.545Z,4.92
2022-10-11T20:56:25.033Z,4.86
2022-10-11T20:58:52.650Z,4.88
2022-10-11T21:01:22.134Z,4.92
2022-10-11T21:03:48.728Z,4.94
2022-10-11T21:06:15.180Z,4.94
2022-10-11T21:08:41.588Z,4.94
2022-10-11T21:11:09.241Z,4.89
2022-10-11T21:13:36.462Z,4.86
2022-10-11T21:16:05.150Z,4.84
2022-10-11T21:18:31.470Z,4.83
2022-10-11T21:20:57.883Z,4.80
2022-10-11T21:23:24.241Z,4.81
2022-10-11T21:25:50.599Z,4.82
2022-10-11T21:28:16.975Z,4.82
2022-10-11T21:30:43.314Z,4.78
2022-10-11T21:33:09.658Z,4.77
2022-10-11T21:35:39.043Z,4.71
2022-10-11T21:38:05.402Z,4.69
2022-10-11T21:40:31.754Z,4.67
2022-10-11T21:42:58.143Z,4.65
2022-10-11T21:45:24.463Z,4.62
2022-10-11T21:47:50.929Z,4.59
2022-10-11T21:50:17.434Z,4.55
2022-10-11T21:52:43.774Z,4.51
2022-10-11T21:55:10.474Z,4.49
2022-10-11T21:57:36.886Z,4.48
2022-10-11T22:00:06.331Z,4.44
2022-10-11T22:02:32.947Z,4.39
2022-10-11T22:04:59.491Z,4.35
2022-10-11T22:07:25.915Z,4.36
2022-10-11T22:09:52.332Z,4.39
2022-10-11T22:12:18.652Z,4.42
2022-10-11T22:14:44.986Z,4.40
2022-10-11T22:17:11.377Z,4.39
2022-10-11T22:19:37.719Z,4.37
2022-10-11T22:22:04.350Z,4.35
2022-10-11T22:24:30.684Z,4.34
2022-10-11T22:26:57.156Z,4.27
2022-10-11T22:29:23.637Z,4.27
2022-10-11T22:31:49.991Z,4.22
2022-10-11T22:34:16.371Z,4.19
2022-10-11T22:36:42.873Z,4.14
2022-10-11T22:39:10.038Z,4.06
2022-10-11T22:41:37.407Z,4.00
2022-10-11T22:44:04.918Z,3.98
2022-10-11T22:46:31.326Z,4.00
2022-10-11T22:48:57.671Z,3.97
2022-10-11T22:51:24.129Z,4.01
2022-10-11T22:53:50.533Z,4.01
2022-10-11T22:56:16.938Z,3.98
2022-10-11T22:58:43.394Z,3.93
2022-10-11T23:01:11.993Z,3.94
2022-10-11T23:03:38.500Z,3.91
2022-10-11T23:06:05.440Z,3.89
2022-10-11T23:08:32.090Z,3.88
2022-10-11T23:11:03.806Z,3.89
2022-10-11T23:13:30.151Z,3.91
2022-10-11T23:15:56.506Z,3.88
2022-10-11T23:18:22.859Z,3.87
2022-10-11T23:20:49.218Z,3.86
2022-10-11T23:23:15.555Z,3.83
2022-10-11T23:25:41.903Z,3.82
2022-10-11T23:28:08.264Z,3.76
2022-10-11T23:30:34.684Z,3.77
2022-10-11T23:33:01.059Z,3.78
2022-10-11T23:35:27.406Z,3.78
2022-10-11T23:37:54.719Z,3.79
2022-10-11T23:40:21.169Z,3.79
2022-10-11T23:42:47.595Z,3.79
2022-10-11T23:45:14.015Z,3.75
2022-10-11T23:47:40.680Z,3.70
2022-10-11T23:50:08.006Z,3.64
2022-10-11T23:52:34.467Z,3.61
2022-10-11T23:55:00.823Z,3.59
2022-10-11T23:57:27.176Z,3.62
2022-10-11T23:59:53.521Z,3.56
